createdAt,value
2019-01-25T00:01:53.276Z,56.27
2019-01-25T00:04:26.508Z,65.27
2019-01-25T00:06:59.776Z,57.75
2019-01-25T00:09:33.027Z,51.03
2019-01-25T00:12:06.406Z,56.30
2019-01-25T00:14:39.775Z,55.83
2019-01-25T00:17:13.082Z,49.90
2019-01-25T00:19:46.389Z,52.53
2019-01-25T00:22:19.787Z,60.73
2019-01-25T00:24:53.475Z,47.83
2019-01-25T00:27:26.408Z,60.70
2019-01-25T00:30:01.380Z,58.40
2019-01-25T00:32:34.895Z,65.80
2019-01-25T00:35:08.905Z,56.20
2019-01-25T00:37:42.223Z,54.90
2019-01-25T00:40:21.089Z,71.37
2019-01-25T00:42:54.434Z,58.07
2019-01-25T00:45:29.870Z,59.23
2019-01-25T00:48:02.684Z,54.40
2019-01-25T00:50:36.415Z,60.25
2019-01-25T00:53:09.655Z,60.87
2019-01-25T00:55:42.904Z,57.80
2019-01-25T00:58:16.153Z,65.17
2019-01-25T01:01:08.657Z,60.40
2019-01-25T01:03:41.931Z,58.83
2019-01-25T01:06:16.305Z,57.83
2019-01-25T01:08:49.487Z,57.05
2019-01-25T01:11:22.523Z,53.00
2019-01-25T01:13:56.313Z,65.55
2019-01-25T01:16:32.665Z,65.10
2019-01-25T01:19:05.985Z,67.67
2019-01-25T01:21:40.146Z,65.47
2019-01-25T01:24:13.261Z,67.80
2019-01-25T01:26:46.471Z,64.05
2019-01-25T01:29:22.052Z,70.20
2019-01-25T01:31:55.208Z,62.23
2019-01-25T01:34:28.399Z,70.77
2019-01-25T01:37:04.137Z,67.92
2019-01-25T01:39:37.390Z,57.63
2019-01-25T01:42:10.517Z,64.85
2019-01-25T01:44:44.620Z,69.70
2019-01-25T01:47:17.663Z,59.53
2019-01-25T01:49:52.992Z,58.43
2019-01-25T01:52:26.476Z,69.95
2019-01-25T01:54:59.605Z,63.87
2019-01-25T01:57:32.666Z,65.83
2019-01-25T02:00:06.689Z,58.92
2019-01-25T02:02:39.805Z,63.05
2019-01-25T02:05:13.349Z,57.20
2019-01-25T02:07:46.432Z,59.77
2019-01-25T02:10:29.503Z,54.23
2019-01-25T02:13:01.725Z,56.23
2019-01-25T02:15:34.598Z,50.65
2019-01-25T02:18:08.883Z,53.47
2019-01-25T02:20:42.187Z,61.07
2019-01-25T02:23:16.284Z,52.40
2019-01-25T02:25:49.945Z,56.00
2019-01-25T02:28:23.048Z,55.37
2019-01-25T02:30:57.004Z,47.10
2019-01-25T02:33:48.453Z,47.45
2019-01-25T02:36:22.925Z,50.27
2019-01-25T02:38:56.968Z,48.94
2019-01-25T02:41:30.592Z,44.38
2019-01-25T02:44:26.172Z,50.07
2019-01-25T02:53:39.606Z,46.90
2019-01-25T02:56:13.239Z,45.73
2019-01-25T02:58:46.696Z,43.37
2019-01-25T03:01:21.182Z,51.70
2019-01-25T03:03:55.727Z,46.70
2019-01-25T03:06:29.319Z,40.53
2019-01-25T03:09:02.633Z,39.87
2019-01-25T03:11:41.004Z,37.10
2019-01-25T03:14:14.485Z,40.67
2019-01-25T03:16:47.594Z,41.67
2019-01-25T03:19:22.164Z,37.20
2019-01-25T03:21:55.311Z,31.40
2019-01-25T03:24:28.503Z,32.07
2019-01-25T03:27:05.582Z,32.53
2019-01-25T03:29:38.856Z,34.87
2019-01-25T03:32:12.170Z,29.63
2019-01-25T03:34:45.467Z,33.80
2019-01-25T03:37:18.691Z,40.53
2019-01-25T03:39:52.578Z,32.47
2019-01-25T03:42:26.995Z,28.77
2019-01-25T03:45:00.846Z,29.40
2019-01-25T03:47:34.073Z,31.73
2019-01-25T03:50:13.434Z,28.80
2019-01-25T03:52:48.099Z,31.43
2019-01-25T03:55:22.832Z,31.27
2019-01-25T03:57:56.439Z,27.87
2019-01-25T04:00:30.964Z,25.67
2019-01-25T04:03:04.244Z,28.93
2019-01-25T04:05:37.899Z,22.80
2019-01-25T04:08:11.579Z,27.97
2019-01-25T04:10:45.217Z,27.82
2019-01-25T04:13:20.649Z,29.30
2019-01-25T04:15:54.854Z,29.97
2019-01-25T04:18:28.683Z,31.10
2019-01-25T04:21:03.566Z,29.40
2019-01-25T04:23:38.246Z,22.53
2019-01-25T04:26:13.061Z,24.97
2019-01-25T04:28:46.605Z,32.37
2019-01-25T04:31:20.223Z,25.00
2019-01-25T04:33:53.707Z,32.57
2019-01-25T04:36:26.770Z,24.53
2019-01-25T04:39:00.674Z,36.60
2019-01-25T04:41:33.995Z,21.50
2019-01-25T04:44:08.081Z,24.57
2019-01-25T04:46:41.237Z,27.37
2019-01-25T04:49:14.462Z,21.00
2019-01-25T04:51:47.982Z,27.53
2019-01-25T04:54:21.036Z,27.77
2019-01-25T04:56:54.180Z,23.80
2019-01-25T04:59:30.407Z,20.90
2019-01-25T05:02:03.759Z,26.97
2019-01-25T05:04:37.850Z,27.60
2019-01-25T05:07:15.145Z,19.00
2019-01-25T05:09:48.620Z,19.13
2019-01-25T05:12:22.309Z,26.93
2019-01-25T05:14:58.990Z,20.63
2019-01-25T05:17:33.505Z,27.73
2019-01-25T05:20:08.253Z,20.30
2019-01-25T05:22:42.654Z,23.87
2019-01-25T05:25:17.546Z,21.30
2019-01-25T05:27:52.248Z,14.73
2019-01-25T05:30:26.180Z,25.00
2019-01-25T05:32:59.635Z,26.50
2019-01-25T05:35:39.219Z,18.10
2019-01-25T05:38:12.779Z,21.00
2019-01-25T05:40:47.494Z,20.90
2019-01-25T05:43:24.480Z,18.27
2019-01-25T05:45:58.479Z,15.55
2019-01-25T05:48:35.749Z,26.47
2019-01-25T05:51:10.534Z,20.70
2019-01-25T05:53:49.091Z,15.40
2019-01-25T05:56:23.147Z,16.52
2019-01-25T05:58:57.826Z,19.45
2019-01-25T06:01:31.016Z,18.30
2019-01-25T06:04:04.359Z,18.23
2019-01-25T06:06:42.154Z,17.63
2019-01-25T06:09:17.328Z,15.57
2019-01-25T06:11:50.757Z,12.07
2019-01-25T06:14:25.699Z,17.47
2019-01-25T06:16:59.108Z,28.57
2019-01-25T06:19:37.085Z,21.03
2019-01-25T06:22:10.319Z,16.27
2019-01-25T06:24:46.723Z,18.37
2019-01-25T06:27:20.097Z,19.33
2019-01-25T06:29:54.179Z,23.17
2019-01-25T06:32:27.350Z,23.30
2019-01-25T06:35:00.564Z,19.37
2019-01-25T06:37:34.900Z,20.73
2019-01-25T06:40:11.369Z,21.50
2019-01-25T06:42:44.897Z,24.53
2019-01-25T06:45:19.788Z,18.23
2019-01-25T06:47:53.502Z,14.97
2019-01-25T06:50:27.724Z,28.43
2019-01-25T06:53:01.549Z,21.17
2019-01-25T06:55:35.353Z,22.50
2019-01-25T06:58:09.157Z,17.77
2019-01-25T07:00:43.152Z,19.67
2019-01-25T07:03:16.627Z,19.82
2019-01-25T07:05:50.919Z,18.60
2019-01-25T07:08:24.578Z,13.33
2019-01-25T07:10:57.891Z,17.27
2019-01-25T07:13:31.456Z,17.43
2019-01-25T07:16:06.724Z,17.77
2019-01-25T07:18:41.198Z,18.60
2019-01-25T07:21:17.922Z,26.40
2019-01-25T07:23:53.385Z,23.07
2019-01-25T07:26:27.606Z,23.40
2019-01-25T07:29:01.376Z,24.60
2019-01-25T07:31:35.781Z,23.20
2019-01-25T07:34:09.806Z,19.10
2019-01-25T07:36:45.062Z,14.63
2019-01-25T07:39:22.951Z,16.30
2019-01-25T07:41:59.586Z,22.00
2019-01-25T07:44:32.379Z,21.00
2019-01-25T07:47:06.012Z,23.20
2019-01-25T07:49:39.543Z,22.00
2019-01-25T07:52:13.356Z,21.10
2019-01-25T07:54:47.425Z,19.90
2019-01-25T07:57:20.626Z,22.05
2019-01-25T07:59:54.069Z,24.70
2019-01-25T08:02:27.332Z,25.27
2019-01-25T08:05:01.048Z,19.47
2019-01-25T08:07:35.034Z,21.13
2019-01-25T08:10:19.602Z,18.37
2019-01-25T08:13:03.989Z,23.20
2019-01-25T08:15:37.424Z,25.23
2019-01-25T08:18:11.905Z,23.70
2019-01-25T08:20:45.602Z,24.23
2019-01-25T08:23:18.928Z,21.63
2019-01-25T08:25:52.507Z,22.55
2019-01-25T08:28:26.206Z,19.73
2019-01-25T08:31:00.188Z,18.23
2019-01-25T08:33:33.300Z,25.83
2019-01-25T08:36:06.980Z,23.17
2019-01-25T08:38:43.408Z,19.33
2019-01-25T08:41:16.097Z,21.53
2019-01-25T08:43:49.366Z,17.30
2019-01-25T08:46:22.900Z,18.07
2019-01-25T08:48:56.308Z,20.33
2019-01-25T08:51:29.875Z,23.53
2019-01-25T08:54:06.058Z,23.60
2019-01-25T08:56:39.610Z,23.92
2019-01-25T08:59:13.110Z,23.20
2019-01-25T09:01:48.180Z,30.27
2019-01-25T09:04:23.519Z,27.40
2019-01-25T09:06:57.640Z,27.47
2019-01-25T09:09:31.278Z,25.87
2019-01-25T09:12:06.356Z,30.13
2019-01-25T09:14:40.584Z,24.75
2019-01-25T09:17:14.133Z,29.87
2019-01-25T09:19:48.246Z,34.17
2019-01-25T09:22:22.041Z,30.20
2019-01-25T09:24:56.016Z,34.93
2019-01-25T09:27:29.206Z,35.90
2019-01-25T09:30:03.121Z,28.10
2019-01-25T09:32:38.303Z,37.27
2019-01-25T09:35:13.233Z,38.27
2019-01-25T09:37:51.250Z,34.43
2019-01-25T09:40:27.423Z,29.67
2019-01-25T09:43:05.166Z,32.77
2019-01-25T09:45:39.144Z,27.03
2019-01-25T09:48:13.793Z,25.27
2019-01-25T09:50:52.710Z,31.07
2019-01-25T09:53:23.700Z,32.90
2019-01-25T09:56:00.143Z,24.33
2019-01-25T09:58:35.537Z,25.00
2019-01-25T10:01:11.280Z,23.30
2019-01-25T10:03:47.296Z,24.67
2019-01-25T10:06:23.876Z,27.00
2019-01-25T10:08:59.394Z,24.63
2019-01-25T10:11:35.125Z,30.57
2019-01-25T10:14:10.443Z,27.23
2019-01-25T10:16:46.238Z,26.45
2019-01-25T10:19:21.966Z,36.28
2019-01-25T10:21:56.900Z,30.13
2019-01-25T10:24:34.293Z,27.17
2019-01-25T10:27:09.092Z,30.50
2019-01-25T10:29:44.403Z,29.57
2019-01-25T10:32:20.983Z,29.87
2019-01-25T10:34:55.627Z,23.50
2019-01-25T10:37:30.085Z,31.60
2019-01-25T10:40:06.473Z,29.57
2019-01-25T10:42:45.570Z,30.60
2019-01-25T10:45:21.882Z,26.63
2019-01-25T10:47:55.839Z,26.63
2019-01-25T10:50:32.141Z,32.08
2019-01-25T10:53:09.663Z,28.65
2019-01-25T10:55:44.553Z,25.75
2019-01-25T10:58:20.798Z,30.40
2019-01-25T11:00:55.380Z,48.03
2019-01-25T11:03:30.996Z,34.10
2019-01-25T11:06:05.889Z,37.80
2019-01-25T11:08:40.485Z,35.20
2019-01-25T11:11:17.037Z,47.27
2019-01-25T11:13:53.613Z,36.57
2019-01-25T11:16:27.966Z,40.60
2019-01-25T11:19:02.511Z,43.33
2019-01-25T11:21:38.215Z,44.40
2019-01-25T11:24:12.650Z,40.25
2019-01-25T11:26:50.913Z,46.17
2019-01-25T11:29:27.007Z,40.73
2019-01-25T11:32:01.548Z,41.07
2019-01-25T11:34:35.371Z,44.17
2019-01-25T11:37:09.993Z,41.37
2019-01-25T11:39:44.244Z,45.30
2019-01-25T11:42:21.975Z,53.52
2019-01-25T11:44:55.808Z,43.77
2019-01-25T11:47:31.316Z,40.93
2019-01-25T11:50:08.814Z,48.25
2019-01-25T11:52:43.873Z,43.63
2019-01-25T11:55:19.530Z,48.47
2019-01-25T11:57:53.946Z,46.15
2019-01-25T12:00:34.050Z,46.43
2019-01-25T12:03:07.840Z,43.50
2019-01-25T12:05:42.366Z,50.85
2019-01-25T12:08:16.131Z,46.40
2019-01-25T12:10:51.332Z,40.40
2019-01-25T12:13:25.460Z,41.47
2019-01-25T12:16:02.087Z,59.50
2019-01-25T12:18:36.374Z,46.13
2019-01-25T12:21:11.973Z,48.47
2019-01-25T12:23:45.799Z,46.97
2019-01-25T12:26:20.403Z,52.05
2019-01-25T12:28:54.763Z,45.93
2019-01-25T12:31:28.740Z,47.83
2019-01-25T12:34:03.894Z,45.03
2019-01-25T12:36:37.658Z,46.65
2019-01-25T12:39:12.642Z,48.00
2019-01-25T12:41:47.761Z,45.60
2019-01-25T12:44:22.428Z,46.40
2019-01-25T12:46:56.151Z,34.38
2019-01-25T12:49:29.513Z,37.35
2019-01-25T12:52:08.192Z,44.98
2019-01-25T12:54:39.712Z,41.43
2019-01-25T12:57:13.836Z,38.30
2019-01-25T12:59:47.491Z,46.70
2019-01-25T13:02:22.421Z,48.98
2019-01-25T13:04:58.410Z,34.98
2019-01-25T13:07:34.320Z,43.83
2019-01-25T13:10:14.752Z,48.23
2019-01-25T13:12:53.127Z,51.43
2019-01-25T13:15:28.904Z,56.28
2019-01-25T13:18:03.512Z,43.03
2019-01-25T13:20:42.690Z,45.07
2019-01-25T13:23:18.521Z,38.33
2019-01-25T13:25:52.352Z,49.70
2019-01-25T13:28:26.339Z,62.65
2019-01-25T13:31:03.746Z,41.57
2019-01-25T13:33:38.674Z,43.80
2019-01-25T13:36:14.267Z,49.07
2019-01-25T13:38:49.108Z,42.57
2019-01-25T13:41:27.283Z,46.70
2019-01-25T13:43:57.960Z,51.53
2019-01-25T13:46:52.953Z,47.60
2019-01-25T13:49:34.509Z,45.00
2019-01-25T13:52:09.218Z,44.33
2019-01-25T13:54:43.256Z,49.37
2019-01-25T13:57:19.536Z,45.93
2019-01-25T13:59:54.342Z,44.50
2019-01-25T14:02:31.921Z,42.27
2019-01-25T14:05:06.703Z,54.10
2019-01-25T14:07:40.682Z,43.67
2019-01-25T14:10:26.570Z,37.63
2019-01-25T14:13:00.871Z,39.57
2019-01-25T14:15:36.547Z,42.97
2019-01-25T14:18:11.270Z,41.70
2019-01-25T14:21:10.165Z,40.07
2019-01-25T14:23:44.624Z,43.00
2019-01-25T14:26:20.933Z,42.27
2019-01-25T14:28:56.733Z,33.10
2019-01-25T14:31:31.943Z,38.38
2019-01-25T14:34:08.088Z,36.07
2019-01-25T14:36:41.881Z,32.83
2019-01-25T14:39:17.086Z,39.07
2019-01-25T14:41:50.905Z,32.87
2019-01-25T14:44:24.783Z,32.83
2019-01-25T14:46:58.545Z,42.83
2019-01-25T14:49:33.616Z,32.63
2019-01-25T14:52:08.321Z,34.20
2019-01-25T14:54:41.629Z,37.20
2019-01-25T14:57:15.244Z,31.37
2019-01-25T14:59:48.883Z,33.47
2019-01-25T15:02:22.975Z,42.03
2019-01-25T15:04:56.828Z,29.45
2019-01-25T15:07:30.364Z,34.33
2019-01-25T15:10:03.981Z,37.53
2019-01-25T15:12:38.060Z,31.85
2019-01-25T15:15:13.977Z,44.53
2019-01-25T15:18:06.988Z,31.67
2019-01-25T15:20:41.181Z,46.47
2019-01-25T15:23:14.662Z,40.90
2019-01-25T15:25:48.016Z,37.07
2019-01-25T15:28:21.674Z,41.97
2019-01-25T15:30:55.200Z,35.37
2019-01-25T15:33:28.764Z,38.93
2019-01-25T15:36:04.450Z,39.38
2019-01-25T15:38:37.904Z,39.45
2019-01-25T15:41:12.064Z,40.70
2019-01-25T15:43:45.972Z,36.10
2019-01-25T15:46:19.531Z,46.63
2019-01-25T15:48:53.843Z,50.63
2019-01-25T15:51:28.000Z,36.60
2019-01-25T15:54:01.618Z,41.07
2019-01-25T15:56:35.024Z,36.93
2019-01-25T15:59:09.528Z,40.97
2019-01-25T16:01:43.160Z,40.57
2019-01-25T16:04:16.748Z,39.80
2019-01-25T16:06:50.326Z,40.65
2019-01-25T16:09:23.847Z,45.47
2019-01-25T16:11:57.525Z,44.25
2019-01-25T16:14:31.780Z,40.37
2019-01-25T16:17:05.148Z,36.73
2019-01-25T16:19:38.432Z,41.63
2019-01-25T16:22:12.155Z,47.37
2019-01-25T16:24:46.244Z,42.23
2019-01-25T16:27:20.565Z,40.03
2019-01-25T16:29:53.705Z,44.47
2019-01-25T16:32:30.415Z,43.70
2019-01-25T16:35:03.846Z,47.73
2019-01-25T16:37:39.898Z,43.90
2019-01-25T16:40:24.510Z,48.35
2019-01-25T16:42:58.155Z,47.60
2019-01-25T16:45:39.912Z,45.20
2019-01-25T16:48:13.307Z,46.70
2019-01-25T16:50:46.687Z,41.47
2019-01-25T16:53:19.878Z,42.13
2019-01-25T16:55:53.260Z,38.67
2019-01-25T16:58:26.191Z,44.80
2019-01-25T17:00:59.459Z,47.33
2019-01-25T17:03:32.963Z,39.47
2019-01-25T17:06:06.834Z,45.90
2019-01-25T17:08:40.378Z,44.07
2019-01-25T17:11:13.786Z,41.23
2019-01-25T17:13:47.388Z,41.73
2019-01-25T17:16:21.777Z,37.30
2019-01-25T17:18:55.460Z,37.27
2019-01-25T17:21:28.608Z,40.43
2019-01-25T17:24:01.897Z,35.27
2019-01-25T17:26:36.758Z,41.67
2019-01-25T17:29:09.919Z,41.20
2019-01-25T17:31:44.091Z,42.17
2019-01-25T17:34:17.320Z,37.63
2019-01-25T17:36:50.537Z,39.57
2019-01-25T17:39:24.159Z,38.13
2019-01-25T17:41:57.432Z,33.87
2019-01-25T17:44:32.241Z,35.63
2019-01-25T17:47:05.347Z,35.05
2019-01-25T17:49:38.625Z,37.57
2019-01-25T17:52:11.820Z,39.53
2019-01-25T17:54:46.299Z,50.53
2019-01-25T17:57:19.562Z,42.27
2019-01-25T17:59:53.617Z,40.07
2019-01-25T18:02:29.793Z,50.30
2019-01-25T18:05:03.072Z,49.47
2019-01-25T18:07:36.238Z,42.67
2019-01-25T18:10:17.239Z,47.40
2019-01-25T18:12:50.625Z,57.77
2019-01-25T18:15:24.004Z,56.83
2019-01-25T18:17:57.287Z,48.50
2019-01-25T18:20:30.650Z,52.10
2019-01-25T18:23:03.828Z,65.23
2019-01-25T18:25:52.839Z,56.20
2019-01-25T18:28:28.584Z,62.57
2019-01-25T18:31:04.290Z,60.57
2019-01-25T18:33:37.465Z,62.83
2019-01-25T18:36:12.112Z,69.17
2019-01-25T18:38:46.548Z,74.70
2019-01-25T18:41:19.718Z,62.33
2019-01-25T18:43:53.026Z,74.17
2019-01-25T18:46:26.617Z,84.10
2019-01-25T18:49:01.379Z,76.37
2019-01-25T18:51:34.908Z,80.23
2019-01-25T18:54:08.867Z,76.90
2019-01-25T18:56:43.287Z,89.13
2019-01-25T18:59:16.488Z,84.90
2019-01-25T19:01:50.959Z,81.03
2019-01-25T19:04:24.349Z,73.63
2019-01-25T19:06:57.556Z,96.03
2019-01-25T19:09:31.267Z,93.42
2019-01-25T19:12:04.504Z,90.07
2019-01-25T19:14:38.274Z,96.87
2019-01-25T19:17:11.539Z,96.83
2019-01-25T19:19:44.613Z,96.83
2019-01-25T19:22:21.373Z,114.07
2019-01-25T19:24:56.322Z,113.63
2019-01-25T19:27:29.258Z,103.60
2019-01-25T19:30:02.355Z,100.87
2019-01-25T19:32:35.528Z,99.17
2019-01-25T19:35:11.280Z,92.93
2019-01-25T19:37:44.540Z,99.60
2019-01-25T19:40:20.992Z,99.17
2019-01-25T19:42:54.424Z,98.43
2019-01-25T19:45:27.926Z,95.13
2019-01-25T19:48:02.444Z,100.25
2019-01-25T19:50:35.710Z,99.33
2019-01-25T19:53:09.194Z,98.37
2019-01-25T19:55:43.564Z,93.40
2019-01-25T19:58:17.463Z,104.47
2019-01-25T20:00:50.858Z,99.23
2019-01-25T20:03:24.298Z,97.50
2019-01-25T20:05:57.360Z,99.20
2019-01-25T20:08:30.706Z,89.80
2019-01-25T20:11:04.266Z,88.37
2019-01-25T20:13:37.302Z,92.62
2019-01-25T20:16:10.609Z,97.15
2019-01-25T20:18:44.360Z,102.57
2019-01-25T20:21:19.025Z,94.37
2019-01-25T20:23:52.383Z,99.03
2019-01-25T20:26:25.731Z,101.10
2019-01-25T20:28:58.895Z,96.77
2019-01-25T20:31:33.178Z,87.53
2019-01-25T20:34:06.603Z,105.23
2019-01-25T20:36:40.785Z,94.57
2019-01-25T20:39:13.922Z,91.13
2019-01-25T20:41:47.224Z,90.00
2019-01-25T20:44:20.302Z,98.53
2019-01-25T20:46:53.731Z,95.17
2019-01-25T20:49:27.581Z,86.65
2019-01-25T20:52:00.556Z,90.75
2019-01-25T20:54:33.740Z,86.33
2019-01-25T20:57:06.963Z,87.53
2019-01-25T20:59:40.317Z,79.53
2019-01-25T21:02:13.840Z,79.93
2019-01-25T21:04:46.937Z,76.77
2019-01-25T21:07:21.076Z,74.33
2019-01-25T21:09:54.347Z,70.80
2019-01-25T21:12:27.905Z,71.30
2019-01-25T21:15:01.449Z,79.70
2019-01-25T21:17:34.457Z,68.13
2019-01-25T21:20:13.569Z,72.53
2019-01-25T21:22:47.273Z,60.73
2019-01-25T21:25:21.007Z,71.30
2019-01-25T21:27:54.106Z,70.60
2019-01-25T21:30:33.433Z,72.80
2019-01-25T21:33:07.995Z,66.93
2019-01-25T21:35:41.118Z,65.28
2019-01-25T21:38:15.345Z,75.40
2019-01-25T21:40:48.478Z,70.53
2019-01-25T21:43:22.101Z,64.63
2019-01-25T21:45:55.297Z,72.03
2019-01-25T21:48:28.439Z,66.37
2019-01-25T21:51:02.922Z,76.37
2019-01-25T21:53:36.170Z,69.83
2019-01-25T21:56:09.365Z,68.70
2019-01-25T21:58:43.129Z,74.37
2019-01-25T22:01:16.492Z,69.22
2019-01-25T22:03:50.232Z,77.07
2019-01-25T22:06:23.741Z,74.60
2019-01-25T22:08:58.459Z,71.93
2019-01-25T22:11:33.163Z,78.13
2019-01-25T22:14:06.600Z,73.85
2019-01-25T22:16:39.708Z,76.80
2019-01-25T22:19:12.808Z,72.23
2019-01-25T22:21:46.112Z,76.00
2019-01-25T22:24:19.186Z,67.33
2019-01-25T22:26:52.215Z,76.87
2019-01-25T22:29:25.316Z,68.93
2019-01-25T22:31:59.864Z,73.83
2019-01-25T22:34:34.497Z,57.53
2019-01-25T22:37:08.208Z,79.73
2019-01-25T22:39:41.593Z,73.30
2019-01-25T22:42:15.960Z,66.77
2019-01-25T22:44:49.141Z,69.10
2019-01-25T22:47:22.431Z,65.23
2019-01-25T22:49:55.610Z,73.80
2019-01-25T22:52:28.767Z,72.60
2019-01-25T22:55:02.369Z,72.87
2019-01-25T22:57:36.177Z,73.87
2019-01-25T23:00:13.362Z,83.20
2019-01-25T23:02:46.634Z,79.10
2019-01-25T23:05:22.365Z,79.83
2019-01-25T23:07:56.836Z,86.10
2019-01-25T23:10:30.257Z,84.97
2019-01-25T23:13:03.625Z,99.20
2019-01-25T23:15:36.994Z,110.50
2019-01-25T23:18:10.124Z,100.23
2019-01-25T23:20:43.727Z,113.87
2019-01-25T23:23:18.360Z,116.42
2019-01-25T23:25:51.581Z,117.47
2019-01-25T23:28:25.454Z,118.13
2019-01-25T23:30:59.387Z,113.37
2019-01-25T23:33:33.256Z,130.18
2019-01-25T23:36:06.865Z,129.70
2019-01-25T23:38:40.607Z,122.27
2019-01-25T23:41:13.764Z,109.47
2019-01-25T23:43:48.428Z,106.35
2019-01-25T23:46:22.894Z,127.27
2019-01-25T23:48:56.561Z,114.62
2019-01-25T23:51:30.500Z,117.53
2019-01-25T23:54:04.037Z,111.45
2019-01-25T23:56:37.746Z,102.67
2019-01-25T23:59:10.903Z,113.77
